sensor_id;sensor_type;location;lat;lon;timestamp;pressure;altitude;pressure_sealevel;temperature;humidity
77013;BME280;67260;53.130;17.982;2024-02-26T00:24:59;100225.00;;;1.82;84.39
77013;BME280;67260;53.130;17.982;2024-02-26T00:27:40;100221.59;;;1.76;84.60
77013;BME280;67260;53.130;17.982;2024-02-26T00:30:43;100215.11;;;1.73;84.88
77013;BME280;67260;53.130;17.982;2024-02-26T00:33:41;100210.79;;;1.74;85.44
77013;BME280;67260;53.130;17.982;2024-02-26T00:37:25;100207.85;;;1.82;85.76
77013;BME280;67260;53.130;17.982;2024-02-26T00:45:04;100212.80;;;1.85;84.50
77013;BME280;67260;53.130;17.982;2024-02-26T00:56:19;100206.48;;;1.57;84.86
77013;BME280;67260;53.130;17.982;2024-02-26T00:59:00;100206.80;;;1.59;85.07
77013;BME280;67260;53.130;17.982;2024-02-26T01:02:15;100205.80;;;1.65;85.25
77013;BME280;67260;53.130;17.982;2024-02-26T01:08:55;100195.73;;;1.72;84.85
77013;BME280;67260;53.130;17.982;2024-02-26T01:11:50;100199.73;;;1.81;85.03
77013;BME280;67260;53.130;17.982;2024-02-26T01:22:09;100210.71;;;2.03;84.91
77013;BME280;67260;53.130;17.982;2024-02-26T01:25:44;100210.35;;;2.12;85.11
77013;BME280;67260;53.130;17.982;2024-02-26T01:28:34;100213.45;;;2.18;84.58
77013;BME280;67260;53.130;17.982;2024-02-26T01:31:02;100214.64;;;2.26;85.06
77013;BME280;67260;53.130;17.982;2024-02-26T01:34:48;100220.02;;;2.34;84.40
77013;BME280;67260;53.130;17.982;2024-02-26T01:37:29;100221.83;;;2.40;84.21
77013;BME280;67260;53.130;17.982;2024-02-26T01:40:16;100219.55;;;2.45;84.12
77013;BME280;67260;53.130;17.982;2024-02-26T01:47:27;100223.18;;;2.52;83.66
77013;BME280;67260;53.130;17.982;2024-02-26T01:55:40;100225.42;;;2.46;83.56
77013;BME280;67260;53.130;17.982;2024-02-26T01:58:21;100221.42;;;2.44;83.78
77013;BME280;67260;53.130;17.982;2024-02-26T02:04:54;100221.48;;;2.37;83.76
77013;BME280;67260;53.130;17.982;2024-02-26T02:07:53;100217.30;;;2.32;83.82
77013;BME280;67260;53.130;17.982;2024-02-26T02:11:34;100221.18;;;2.25;84.03
77013;BME280;67260;53.130;17.982;2024-02-26T02:14:15;100222.30;;;2.23;84.29
77013;BME280;67260;53.130;17.982;2024-02-26T02:16:57;100222.36;;;2.21;84.62
77013;BME280;67260;53.130;17.982;2024-02-26T02:32:11;100217.05;;;1.99;84.44
77013;BME280;67260;53.130;17.982;2024-02-26T02:35:16;100220.09;;;1.90;84.53
77013;BME280;67260;53.130;17.982;2024-02-26T02:45:16;100229.02;;;1.70;84.60
77013;BME280;67260;53.130;17.982;2024-02-26T02:48:02;100233.03;;;1.70;84.84
77013;BME280;67260;53.130;17.982;2024-02-26T03:01:27;100238.30;;;1.72;84.94
77013;BME280;67260;53.130;17.982;2024-02-26T03:04:03;100236.15;;;1.72;84.66
77013;BME280;67260;53.130;17.982;2024-02-26T03:07:10;100231.36;;;1.70;84.78
77013;BME280;67260;53.130;17.982;2024-02-26T03:10:12;100229.23;;;1.67;85.07
77013;BME280;67260;53.130;17.982;2024-02-26T03:13:47;100226.67;;;1.64;85.12
77013;BME280;67260;53.130;17.982;2024-02-26T03:24:10;100208.85;;;1.70;85.91
77013;BME280;67260;53.130;17.982;2024-02-26T03:27:29;100209.97;;;1.71;85.74
77013;BME280;67260;53.130;17.982;2024-02-26T03:30:36;100208.39;;;1.71;85.80
77013;BME280;67260;53.130;17.982;2024-02-26T03:33:40;100213.70;;;1.69;85.45
77013;BME280;67260;53.130;17.982;2024-02-26T03:36:24;100214.27;;;1.64;85.47
77013;BME280;67260;53.130;17.982;2024-02-26T03:38:59;100209.23;;;1.64;85.41
77013;BME280;67260;53.130;17.982;2024-02-26T03:45:02;100209.50;;;1.60;86.05
77013;BME280;67260;53.130;17.982;2024-02-26T03:47:59;100215.27;;;1.55;85.83
77013;BME280;67260;53.130;17.982;2024-02-26T03:51:48;100223.75;;;1.43;86.12
77013;BME280;67260;53.130;17.982;2024-02-26T03:54:16;100225.86;;;1.46;86.99
77013;BME280;67260;53.130;17.982;2024-02-26T04:00:22;100234.09;;;1.58;87.28
77013;BME280;67260;53.130;17.982;2024-02-26T04:17:16;100218.60;;;1.98;87.73
77013;BME280;67260;53.130;17.982;2024-02-26T04:22:50;100218.41;;;2.11;87.74
77013;BME280;67260;53.130;17.982;2024-02-26T04:25:50;100224.33;;;2.17;87.69
77013;BME280;67260;53.130;17.982;2024-02-26T04:28:32;100224.92;;;2.23;87.61
77013;BME280;67260;53.130;17.982;2024-02-26T04:31:19;100227.11;;;2.28;87.54
77013;BME280;67260;53.130;17.982;2024-02-26T04:34:16;100227.94;;;2.29;87.21
77013;BME280;67260;53.130;17.982;2024-02-26T04:36:52;100227.44;;;2.30;87.08
77013;BME280;67260;53.130;17.982;2024-02-26T04:50:16;100232.36;;;2.09;87.13
77013;BME280;67260;53.130;17.982;2024-02-26T05:00:40;100241.75;;;2.02;87.69
77013;BME280;67260;53.130;17.982;2024-02-26T05:08:11;100247.94;;;2.01;87.76
77013;BME280;67260;53.130;17.982;2024-02-26T05:10:52;100247.25;;;2.01;87.78
77013;BME280;67260;53.130;17.982;2024-02-26T05:39:47;100287.67;;;1.75;87.62
77013;BME280;67260;53.130;17.982;2024-02-26T05:42:17;100288.34;;;1.79;87.72
77013;BME280;67260;53.130;17.982;2024-02-26T05:44:59;100290.73;;;1.84;87.83
77013;BME280;67260;53.130;17.982;2024-02-26T05:47:27;100297.00;;;1.89;87.78
77013;BME280;67260;53.130;17.982;2024-02-26T05:49:53;100296.77;;;1.90;87.36
77013;BME280;67260;53.130;17.982;2024-02-26T05:52:23;100299.27;;;1.86;86.77
77013;BME280;67260;53.130;17.982;2024-02-26T05:54:53;100306.27;;;1.86;87.19
77013;BME280;67260;53.130;17.982;2024-02-26T05:57:24;100303.64;;;1.88;86.85
77013;BME280;67260;53.130;17.982;2024-02-26T05:59:56;100305.21;;;1.89;86.92
77013;BME280;67260;53.130;17.982;2024-02-26T06:02:31;100306.25;;;1.84;86.55
77013;BME280;67260;53.130;17.982;2024-02-26T06:04:57;100305.55;;;1.81;86.70
77013;BME280;67260;53.130;17.982;2024-02-26T06:07:24;100304.89;;;1.77;86.24
77013;BME280;67260;53.130;17.982;2024-02-26T06:09:54;100304.16;;;1.73;86.26
77013;BME280;67260;53.130;17.982;2024-02-26T06:12:26;100303.11;;;1.71;86.42
77013;BME280;67260;53.130;17.982;2024-02-26T06:15:06;100307.20;;;1.74;86.51
77013;BME280;67260;53.130;17.982;2024-02-26T06:17:39;100308.82;;;1.73;86.27
77013;BME280;67260;53.130;17.982;2024-02-26T06:30:31;100318.30;;;1.86;85.37
77013;BME280;67260;53.130;17.982;2024-02-26T06:33:25;100321.64;;;1.87;84.96
77013;BME280;67260;53.130;17.982;2024-02-26T06:55:28;100334.29;;;2.03;84.87
77013;BME280;67260;53.130;17.982;2024-02-26T06:58:23;100337.34;;;2.05;84.37
77013;BME280;67260;53.130;17.982;2024-02-26T07:01:11;100336.83;;;2.10;84.60
77013;BME280;67260;53.130;17.982;2024-02-26T07:03:49;100333.77;;;2.25;84.89
77013;BME280;67260;53.130;17.982;2024-02-26T07:13:09;100341.67;;;2.71;84.10
77013;BME280;67260;53.130;17.982;2024-02-26T07:16:27;100341.64;;;2.84;83.83
77013;BME280;67260;53.130;17.982;2024-02-26T07:20:10;100341.24;;;3.06;83.67
77013;BME280;67260;53.130;17.982;2024-02-26T07:26:05;100340.34;;;3.30;83.32
77013;BME280;67260;53.130;17.982;2024-02-26T07:32:05;100347.65;;;3.50;83.06
77013;BME280;67260;53.130;17.982;2024-02-26T07:35:44;100353.01;;;3.67;83.21
77013;BME280;67260;53.130;17.982;2024-02-26T07:38:44;100353.48;;;3.81;82.68
77013;BME280;67260;53.130;17.982;2024-02-26T07:41:25;100354.07;;;3.92;82.04
77013;BME280;67260;53.130;17.982;2024-02-26T07:44:03;100353.23;;;3.96;82.16
77013;BME280;67260;53.130;17.982;2024-02-26T07:46:42;100358.23;;;4.10;82.02
77013;BME280;67260;53.130;17.982;2024-02-26T07:49:23;100358.51;;;4.31;82.14
77013;BME280;67260;53.130;17.982;2024-02-26T07:51:51;100365.96;;;4.36;81.12
77013;BME280;67260;53.130;17.982;2024-02-26T07:54:21;100368.05;;;4.34;81.44
77013;BME280;67260;53.130;17.982;2024-02-26T07:56:49;100373.46;;;4.40;81.26
77013;BME280;67260;53.130;17.982;2024-02-26T07:59:20;100376.61;;;4.46;80.95
77013;BME280;67260;53.130;17.982;2024-02-26T08:02:01;100370.82;;;4.50;81.02
77013;BME280;67260;53.130;17.982;2024-02-26T08:04:30;100373.05;;;4.57;80.03
77013;BME280;67260;53.130;17.982;2024-02-26T08:06:56;100374.27;;;4.60;80.23
77013;BME280;67260;53.130;17.982;2024-02-26T08:09:25;100378.18;;;4.76;80.48
77013;BME280;67260;53.130;17.982;2024-02-26T08:11:52;100378.02;;;4.93;80.15
77013;BME280;67260;53.130;17.982;2024-02-26T08:14:19;100378.76;;;5.21;79.97
77013;BME280;67260;53.130;17.982;2024-02-26T08:16:46;100379.41;;;5.48;78.88
77013;BME280;67260;53.130;17.982;2024-02-26T08:19:28;100379.89;;;5.96;78.98
77013;BME280;67260;53.130;17.982;2024-02-26T08:21:55;100381.64;;;6.78;77.17
77013;BME280;67260;53.130;17.982;2024-02-26T08:24:23;100383.65;;;7.77;75.87
77013;BME280;67260;53.130;17.982;2024-02-26T08:26:59;100383.26;;;9.05;73.49
77013;BME280;67260;53.130;17.982;2024-02-26T08:29:36;100372.91;;;10.35;70.71
77013;BME280;67260;53.130;17.982;2024-02-26T08:32:23;100370.02;;;11.61;68.50
77013;BME280;67260;53.130;17.982;2024-02-26T08:34:51;100370.21;;;12.66;67.01
77013;BME280;67260;53.130;17.982;2024-02-26T08:37:19;100369.85;;;13.41;63.96
77013;BME280;67260;53.130;17.982;2024-02-26T08:40:14;100369.27;;;13.82;62.72
77013;BME280;67260;53.130;17.982;2024-02-26T08:42:40;100373.48;;;14.86;60.47
77013;BME280;67260;53.130;17.982;2024-02-26T08:45:26;100373.72;;;15.68;60.05
77013;BME280;67260;53.130;17.982;2024-02-26T08:47:56;100376.48;;;16.38;57.80
77013;BME280;67260;53.130;17.982;2024-02-26T08:53:48;100379.33;;;18.07;53.87
77013;BME280;67260;53.130;17.982;2024-02-26T08:56:18;100379.23;;;18.14;54.22
77013;BME280;67260;53.130;17.982;2024-02-26T08:58:47;100380.79;;;19.30;53.51
77013;BME280;67260;53.130;17.982;2024-02-26T09:02:04;100380.98;;;20.78;50.36
77013;BME280;67260;53.130;17.982;2024-02-26T09:05:07;100381.75;;;21.81;47.71
77013;BME280;67260;53.130;17.982;2024-02-26T09:07:42;100382.45;;;22.49;45.92
77013;BME280;67260;53.130;17.982;2024-02-26T09:10:18;100384.64;;;23.03;45.10
77013;BME280;67260;53.130;17.982;2024-02-26T09:13:13;100379.69;;;23.58;42.81
77013;BME280;67260;53.130;17.982;2024-02-26T09:15:39;100384.89;;;24.26;42.45
77013;BME280;67260;53.130;17.982;2024-02-26T09:18:06;100390.05;;;24.59;39.33
77013;BME280;67260;53.130;17.982;2024-02-26T09:20:32;100386.62;;;24.50;38.56
77013;BME280;67260;53.130;17.982;2024-02-26T09:22:58;100389.06;;;24.53;38.28
77013;BME280;67260;53.130;17.982;2024-02-26T09:25:24;100390.62;;;24.44;38.25
77013;BME280;67260;53.130;17.982;2024-02-26T09:27:51;100392.16;;;24.52;38.31
77013;BME280;67260;53.130;17.982;2024-02-26T09:30:24;100387.48;;;24.91;36.29
77013;BME280;67260;53.130;17.982;2024-02-26T09:32:50;100391.55;;;25.25;35.51
77013;BME280;67260;53.130;17.982;2024-02-26T09:36:07;100389.26;;;25.71;34.88
77013;BME280;67260;53.130;17.982;2024-02-26T09:38:49;100382.34;;;26.43;33.29
77013;BME280;67260;53.130;17.982;2024-02-26T09:41:30;100382.54;;;26.88;30.99
77013;BME280;67260;53.130;17.982;2024-02-26T09:44:26;100377.39;;;26.79;30.96
77013;BME280;67260;53.130;17.982;2024-02-26T09:47:21;100376.64;;;26.97;30.37
77013;BME280;67260;53.130;17.982;2024-02-26T09:50:53;100383.56;;;27.03;28.56
77013;BME280;67260;53.130;17.982;2024-02-26T09:53:22;100384.61;;;27.02;29.60
77013;BME280;67260;53.130;17.982;2024-02-26T10:00:23;100389.46;;;27.82;27.69
77013;BME280;67260;53.130;17.982;2024-02-26T10:04:05;100384.91;;;28.16;27.78
77013;BME280;67260;53.130;17.982;2024-02-26T10:07:02;100381.42;;;28.26;26.11
77013;BME280;67260;53.130;17.982;2024-02-26T10:09:58;100380.52;;;27.48;26.26
77013;BME280;67260;53.130;17.982;2024-02-26T10:16:11;100383.65;;;27.71;26.16
77013;BME280;67260;53.130;17.982;2024-02-26T10:29:45;100372.63;;;27.98;25.57
77013;BME280;67260;53.130;17.982;2024-02-26T10:32:38;100368.61;;;26.79;26.07
77013;BME280;67260;53.130;17.982;2024-02-26T10:35:14;100377.20;;;24.35;28.69
77013;BME280;67260;53.130;17.982;2024-02-26T10:41:06;100377.52;;;20.30;33.18
77013;BME280;67260;53.130;17.982;2024-02-26T10:47:19;100378.45;;;17.90;37.00
77013;BME280;67260;53.130;17.982;2024-02-26T10:49:46;100386.77;;;16.97;38.61
77013;BME280;67260;53.130;17.982;2024-02-26T10:53:34;100390.09;;;16.26;40.11
77013;BME280;67260;53.130;17.982;2024-02-26T10:56:18;100392.46;;;15.81;41.35
77013;BME280;67260;53.130;17.982;2024-02-26T10:59:13;100396.54;;;15.44;42.51
77013;BME280;67260;53.130;17.982;2024-02-26T11:04:26;100390.08;;;14.62;45.27
77013;BME280;67260;53.130;17.982;2024-02-26T11:07:12;100384.39;;;14.32;46.00
77013;BME280;67260;53.130;17.982;2024-02-26T11:10:05;100382.96;;;13.95;46.83
77013;BME280;67260;53.130;17.982;2024-02-26T11:13:47;100381.02;;;13.55;48.02
77013;BME280;67260;53.130;17.982;2024-02-26T11:16:18;100381.34;;;13.39;48.99
77013;BME280;67260;53.130;17.982;2024-02-26T11:18:48;100384.61;;;13.32;48.67
77013;BME280;67260;53.130;17.982;2024-02-26T11:21:43;100380.07;;;13.28;49.69
77013;BME280;67260;53.130;17.982;2024-02-26T11:24:13;100377.45;;;13.08;49.59
77013;BME280;67260;53.130;17.982;2024-02-26T11:27:10;100383.27;;;12.92;50.68
77013;BME280;67260;53.130;17.982;2024-02-26T11:36:34;100383.00;;;12.51;52.76
77013;BME280;67260;53.130;17.982;2024-02-26T11:39:00;100385.86;;;12.41;53.16
77013;BME280;67260;53.130;17.982;2024-02-26T11:41:26;100387.64;;;12.32;53.52
77013;BME280;67260;53.130;17.982;2024-02-26T11:44:28;100387.98;;;12.29;53.50
77013;BME280;67260;53.130;17.982;2024-02-26T11:47:22;100393.08;;;12.24;54.20
77013;BME280;67260;53.130;17.982;2024-02-26T11:49:49;100388.84;;;12.31;54.13
77013;BME280;67260;53.130;17.982;2024-02-26T11:52:15;100393.40;;;12.42;54.01
77013;BME280;67260;53.130;17.982;2024-02-26T11:54:56;100387.42;;;12.44;54.40
77013;BME280;67260;53.130;17.982;2024-02-26T12:08:43;100394.64;;;12.67;54.82
77013;BME280;67260;53.130;17.982;2024-02-26T12:11:46;100392.86;;;12.88;54.64
77013;BME280;67260;53.130;17.982;2024-02-26T12:37:48;100373.41;;;13.56;53.53
77013;BME280;67260;53.130;17.982;2024-02-26T12:53:20;100365.79;;;13.71;53.03
77013;BME280;67260;53.130;17.982;2024-02-26T12:55:46;100361.69;;;13.78;53.15
77013;BME280;67260;53.130;17.982;2024-02-26T13:01:22;100360.42;;;13.91;52.92
77013;BME280;67260;53.130;17.982;2024-02-26T13:04:24;100357.02;;;14.00;52.78
77013;BME280;67260;53.130;17.982;2024-02-26T13:07:15;100357.51;;;14.06;52.69
77013;BME280;67260;53.130;17.982;2024-02-26T13:10:04;100353.38;;;14.09;52.43
77013;BME280;67260;53.130;17.982;2024-02-26T13:12:32;100353.14;;;14.07;52.65
77013;BME280;67260;53.130;17.982;2024-02-26T13:17:52;100358.20;;;13.93;52.81
77013;BME280;67260;53.130;17.982;2024-02-26T13:20:31;100357.86;;;13.84;53.19
77013;BME280;67260;53.130;17.982;2024-02-26T13:23:18;100356.01;;;13.74;53.55
77013;BME280;67260;53.130;17.982;2024-02-26T13:25:56;100359.16;;;13.66;53.71
77013;BME280;67260;53.130;17.982;2024-02-26T13:28:22;100359.89;;;13.60;53.73
77013;BME280;67260;53.130;17.982;2024-02-26T13:30:54;100364.62;;;13.52;53.69
77013;BME280;67260;53.130;17.982;2024-02-26T13:33:32;100362.36;;;13.45;53.98
77013;BME280;67260;53.130;17.982;2024-02-26T13:35:59;100362.71;;;13.41;54.17
77013;BME280;67260;53.130;17.982;2024-02-26T13:38:27;100369.37;;;13.38;54.30
77013;BME280;67260;53.130;17.982;2024-02-26T13:40:57;100365.55;;;13.36;54.28
77013;BME280;67260;53.130;17.982;2024-02-26T13:43:23;100370.72;;;13.38;54.30
77013;BME280;67260;53.130;17.982;2024-02-26T13:45:50;100376.05;;;13.36;54.36
77013;BME280;67260;53.130;17.982;2024-02-26T13:48:16;100375.29;;;13.31;54.58
77013;BME280;67260;53.130;17.982;2024-02-26T13:50:43;100374.71;;;13.26;54.88
77013;BME280;67260;53.130;17.982;2024-02-26T13:56:43;100371.64;;;13.05;55.48
77013;BME280;67260;53.130;17.982;2024-02-26T14:00:16;100371.56;;;12.93;55.76
77013;BME280;67260;53.130;17.982;2024-02-26T14:03:31;100370.25;;;12.90;56.17
77013;BME280;67260;53.130;17.982;2024-02-26T14:06:06;100369.19;;;12.85;56.37
77013;BME280;67260;53.130;17.982;2024-02-26T14:09:07;100371.05;;;12.81;56.75
77013;BME280;67260;53.130;17.982;2024-02-26T14:12:02;100376.61;;;12.72;57.18
77013;BME280;67260;53.130;17.982;2024-02-26T14:14:53;100379.98;;;12.65;57.27
77013;BME280;67260;53.130;17.982;2024-02-26T14:18:26;100381.13;;;12.61;57.57
77013;BME280;67260;53.130;17.982;2024-02-26T14:21:37;100377.70;;;12.55;58.28
77013;BME280;67260;53.130;17.982;2024-02-26T14:24:27;100378.90;;;12.47;59.15
77013;BME280;67260;53.130;17.982;2024-02-26T14:27:34;100376.80;;;12.36;59.65
77013;BME280;67260;53.130;17.982;2024-02-26T14:30:11;100372.43;;;12.27;60.05
77013;BME280;67260;53.130;17.982;2024-02-26T14:32:52;100374.77;;;12.20;60.52
77013;BME280;67260;53.130;17.982;2024-02-26T14:35:23;100381.86;;;12.11;60.93
77013;BME280;67260;53.130;17.982;2024-02-26T14:38:10;100384.19;;;12.05;61.00
77013;BME280;67260;53.130;17.982;2024-02-26T14:40:39;100383.85;;;12.02;61.19
77013;BME280;67260;53.130;17.982;2024-02-26T14:47:07;100387.09;;;11.93;61.50
77013;BME280;67260;53.130;17.982;2024-02-26T14:50:08;100393.89;;;11.89;62.21
77013;BME280;67260;53.130;17.982;2024-02-26T14:52:56;100387.92;;;11.81;62.11
77013;BME280;67260;53.130;17.982;2024-02-26T14:55:22;100385.38;;;11.76;62.21
77013;BME280;67260;53.130;17.982;2024-02-26T14:57:51;100385.20;;;11.72;62.34
77013;BME280;67260;53.130;17.982;2024-02-26T15:00:41;100388.23;;;11.69;62.69
77013;BME280;67260;53.130;17.982;2024-02-26T15:03:22;100393.36;;;11.64;63.01
77013;BME280;67260;53.130;17.982;2024-02-26T15:06:04;100396.48;;;11.58;62.82
77013;BME280;67260;53.130;17.982;2024-02-26T15:08:47;100396.09;;;11.54;63.17
77013;BME280;67260;53.130;17.982;2024-02-26T15:12:02;100399.25;;;11.49;63.26
77013;BME280;67260;53.130;17.982;2024-02-26T15:15:17;100403.80;;;11.38;63.60
77013;BME280;67260;53.130;17.982;2024-02-26T15:18:01;100399.06;;;11.33;63.72
77013;BME280;67260;53.130;17.982;2024-02-26T15:20:44;100398.58;;;11.28;63.65
77013;BME280;67260;53.130;17.982;2024-02-26T15:23:49;100407.67;;;11.23;63.84
77013;BME280;67260;53.130;17.982;2024-02-26T15:26:38;100411.95;;;11.16;64.03
77013;BME280;67260;53.130;17.982;2024-02-26T15:29:57;100413.30;;;11.09;64.22
77013;BME280;67260;53.130;17.982;2024-02-26T15:32:42;100416.89;;;11.02;64.57
77013;BME280;67260;53.130;17.982;2024-02-26T15:39:08;100421.61;;;10.84;66.12
77013;BME280;67260;53.130;17.982;2024-02-26T15:41:34;100429.06;;;10.74;65.77
77013;BME280;67260;53.130;17.982;2024-02-26T15:47:22;100434.61;;;10.56;66.77
77013;BME280;67260;53.130;17.982;2024-02-26T16:24:27;100478.75;;;9.70;70.14
77013;BME280;67260;53.130;17.982;2024-02-26T16:27:17;100478.88;;;9.60;70.26
77013;BME280;67260;53.130;17.982;2024-02-26T16:29:43;100479.98;;;9.53;70.58
77013;BME280;67260;53.130;17.982;2024-02-26T16:32:34;100481.51;;;9.46;71.03
77013;BME280;67260;53.130;17.982;2024-02-26T16:35:03;100489.55;;;9.41;70.92
77013;BME280;67260;53.130;17.982;2024-02-26T16:37:30;100486.50;;;9.36;71.12
77013;BME280;67260;53.130;17.982;2024-02-26T16:40:01;100489.90;;;9.32;71.47
77013;BME280;67260;53.130;17.982;2024-02-26T16:42:31;100493.00;;;9.29;71.44
77013;BME280;67260;53.130;17.982;2024-02-26T16:44:57;100494.46;;;9.25;71.47
77013;BME280;67260;53.130;17.982;2024-02-26T16:47:25;100492.59;;;9.23;71.40
77013;BME280;67260;53.130;17.982;2024-02-26T16:49:51;100494.46;;;9.20;72.03
77013;BME280;67260;53.130;17.982;2024-02-26T16:52:17;100497.60;;;9.17;72.22
77013;BME280;67260;53.130;17.982;2024-02-26T16:54:43;100500.98;;;9.15;72.15
77013;BME280;67260;53.130;17.982;2024-02-26T16:57:09;100502.70;;;9.14;72.13
77013;BME280;67260;53.130;17.982;2024-02-26T16:59:36;100503.18;;;9.12;72.20
77013;BME280;67260;53.130;17.982;2024-02-26T17:02:04;100507.34;;;9.11;72.60
77013;BME280;67260;53.130;17.982;2024-02-26T17:04:30;100510.31;;;9.11;72.70
77013;BME280;67260;53.130;17.982;2024-02-26T17:06:56;100511.70;;;9.10;72.37
77013;BME280;67260;53.130;17.982;2024-02-26T17:09:23;100514.39;;;9.10;72.73
77013;BME280;67260;53.130;17.982;2024-02-26T17:11:49;100516.51;;;9.09;72.53
77013;BME280;67260;53.130;17.982;2024-02-26T17:14:16;100522.79;;;9.09;72.72
77013;BME280;67260;53.130;17.982;2024-02-26T17:16:42;100527.30;;;9.07;72.74
77013;BME280;67260;53.130;17.982;2024-02-26T17:19:08;100525.80;;;9.06;72.74
77013;BME280;67260;53.130;17.982;2024-02-26T17:21:35;100528.13;;;9.06;72.52
77013;BME280;67260;53.130;17.982;2024-02-26T17:24:01;100522.70;;;9.05;72.87
77013;BME280;67260;53.130;17.982;2024-02-26T17:26:27;100525.23;;;9.05;72.69
77013;BME280;67260;53.130;17.982;2024-02-26T17:28:55;100531.75;;;9.05;73.16
77013;BME280;67260;53.130;17.982;2024-02-26T17:31:22;100531.63;;;9.05;73.02
77013;BME280;67260;53.130;17.982;2024-02-26T17:33:48;100531.02;;;9.05;73.33
77013;BME280;67260;53.130;17.982;2024-02-26T17:36:17;100525.42;;;9.04;73.39
77013;BME280;67260;53.130;17.982;2024-02-26T17:38:43;100528.27;;;9.03;73.84
77013;BME280;67260;53.130;17.982;2024-02-26T17:41:11;100527.23;;;9.03;73.69
77013;BME280;67260;53.130;17.982;2024-02-26T17:43:38;100524.45;;;9.04;74.53
77013;BME280;67260;53.130;17.982;2024-02-26T17:46:04;100519.85;;;9.04;73.86
77013;BME280;67260;53.130;17.982;2024-02-26T17:48:30;100518.70;;;9.04;74.08
77013;BME280;67260;53.130;17.982;2024-02-26T17:50:56;100520.66;;;9.03;73.84
77013;BME280;67260;53.130;17.982;2024-02-26T17:53:23;100524.25;;;9.03;73.76
77013;BME280;67260;53.130;17.982;2024-02-26T17:55:49;100529.50;;;9.02;74.00
77013;BME280;67260;53.130;17.982;2024-02-26T17:58:16;100523.95;;;9.01;73.90
77013;BME280;67260;53.130;17.982;2024-02-26T18:04:20;100530.23;;;8.98;73.84
77013;BME280;67260;53.130;17.982;2024-02-26T18:07:31;100533.60;;;8.97;73.81
77013;BME280;67260;53.130;17.982;2024-02-26T18:09:57;100516.50;;;9.03;73.91
77013;BME280;67260;53.130;17.982;2024-02-26T18:12:23;100522.48;;;9.03;73.81
77013;BME280;67260;53.130;17.982;2024-02-26T18:14:53;100522.61;;;9.02;73.83
77013;BME280;67260;53.130;17.982;2024-02-26T18:17:48;100522.94;;;9.03;73.85
77013;BME280;67260;53.130;17.982;2024-02-26T18:20:27;100523.72;;;9.02;73.84
77013;BME280;67260;53.130;17.982;2024-02-26T18:23:30;100524.86;;;9.01;73.84
77013;BME280;67260;53.130;17.982;2024-02-26T18:26:56;100528.77;;;9.01;73.78
77013;BME280;67260;53.130;17.982;2024-02-26T18:30:13;100529.37;;;9.00;73.93
77013;BME280;67260;53.130;17.982;2024-02-26T18:33:28;100531.98;;;9.00;73.70
77013;BME280;67260;53.130;17.982;2024-02-26T18:36:29;100535.86;;;8.98;73.78
77013;BME280;67260;53.130;17.982;2024-02-26T18:43:02;100538.83;;;8.95;73.71
77013;BME280;67260;53.130;17.982;2024-02-26T18:46:27;100546.11;;;8.93;74.15
77013;BME280;67260;53.130;17.982;2024-02-26T18:49:11;100548.77;;;8.92;73.96
77013;BME280;67260;53.130;17.982;2024-02-26T18:52:03;100546.39;;;8.89;74.23
77013;BME280;67260;53.130;17.982;2024-02-26T18:54:44;100549.08;;;8.89;74.32
77013;BME280;67260;53.130;17.982;2024-02-26T18:57:16;100554.17;;;8.88;74.37
77013;BME280;67260;53.130;17.982;2024-02-26T18:59:43;100554.08;;;8.87;74.53
77013;BME280;67260;53.130;17.982;2024-02-26T19:05:33;100560.79;;;8.84;74.36
77013;BME280;67260;53.130;17.982;2024-02-26T19:11:30;100565.55;;;8.82;74.92
77013;BME280;67260;53.130;17.982;2024-02-26T19:14:00;100568.12;;;8.81;74.83
77013;BME280;67260;53.130;17.982;2024-02-26T19:16:42;100575.48;;;8.80;74.82
77013;BME280;67260;53.130;17.982;2024-02-26T19:19:11;100575.86;;;8.79;74.90
77013;BME280;67260;53.130;17.982;2024-02-26T19:21:37;100576.95;;;8.77;74.99
77013;BME280;67260;53.130;17.982;2024-02-26T19:24:03;100578.86;;;8.76;75.01
77013;BME280;67260;53.130;17.982;2024-02-26T19:26:32;100582.16;;;8.75;75.13
77013;BME280;67260;53.130;17.982;2024-02-26T19:29:00;100581.09;;;8.74;75.18
77013;BME280;67260;53.130;17.982;2024-02-26T19:31:27;100575.91;;;8.71;75.35
77013;BME280;67260;53.130;17.982;2024-02-26T19:33:56;100574.48;;;8.70;75.34
77013;BME280;67260;53.130;17.982;2024-02-26T19:47:08;100577.01;;;8.62;75.77
77013;BME280;67260;53.130;17.982;2024-02-26T19:49:34;100581.20;;;8.61;75.93
77013;BME280;67260;53.130;17.982;2024-02-26T19:52:00;100577.77;;;8.60;75.91
77013;BME280;67260;53.130;17.982;2024-02-26T19:54:30;100574.23;;;8.59;75.85
77013;BME280;67260;53.130;17.982;2024-02-26T19:56:59;100574.91;;;8.57;75.91
77013;BME280;67260;53.130;17.982;2024-02-26T19:59:31;100573.80;;;8.56;75.98
77013;BME280;67260;53.130;17.982;2024-02-26T20:02:00;100572.30;;;8.56;75.93
77013;BME280;67260;53.130;17.982;2024-02-26T20:04:27;100573.03;;;8.56;76.19
77013;BME280;67260;53.130;17.982;2024-02-26T20:06:53;100573.23;;;8.54;76.12
77013;BME280;67260;53.130;17.982;2024-02-26T20:09:20;100571.35;;;8.52;76.51
77013;BME280;67260;53.130;17.982;2024-02-26T20:11:48;100573.83;;;8.52;76.37
77013;BME280;67260;53.130;17.982;2024-02-26T20:14:16;100568.58;;;8.50;76.33
77013;BME280;67260;53.130;17.982;2024-02-26T20:16:45;100569.05;;;8.49;76.53
77013;BME280;67260;53.130;17.982;2024-02-26T20:19:33;100570.71;;;8.47;76.76
77013;BME280;67260;53.130;17.982;2024-02-26T20:22:04;100573.14;;;8.45;76.68
77013;BME280;67260;53.130;17.982;2024-02-26T20:25:07;100574.88;;;8.42;76.59